createdAt,value
2015-11-23T00:00:00.330Z,72419
2015-11-23T00:00:12.674Z,72426
2015-11-23T00:00:25.049Z,72424
2015-11-23T00:00:37.268Z,72430
2015-11-23T00:00:49.643Z,72422
2015-11-23T00:01:01.315Z,72419
2015-11-23T00:01:13.659Z,72429
2015-11-23T00:01:26.003Z,72424
2015-11-23T00:01:38.362Z,72425
2015-11-23T00:01:50.706Z,72428
2015-11-23T00:02:03.037Z,72419
2015-11-23T00:02:15.381Z,72420
2015-11-23T00:02:27.740Z,72431
2015-11-23T00:02:40.084Z,72425
2015-11-23T00:02:52.443Z,72428
2015-11-23T00:03:04.837Z,72420
2015-11-23T00:03:17.181Z,72420
2015-11-23T00:03:29.525Z,72417
2015-11-23T00:03:41.868Z,72413
2015-11-23T00:03:53.509Z,72423
2015-11-23T00:04:05.856Z,72429
2015-11-23T00:04:18.199Z,72432
2015-11-23T00:04:30.543Z,72429
2015-11-23T00:04:42.903Z,72429
2015-11-23T00:04:55.262Z,72427
2015-11-23T00:05:07.640Z,72427
2015-11-23T00:05:20.031Z,72427
2015-11-23T00:05:32.406Z,72422
2015-11-23T00:05:44.765Z,72424
2015-11-23T00:05:57.109Z,72432
2015-11-23T00:06:09.454Z,72433
2015-11-23T00:06:21.814Z,72428
2015-11-23T00:06:34.173Z,72428
2015-11-23T00:06:46.533Z,72424
2015-11-23T00:06:58.923Z,72430
2015-11-23T00:07:11.254Z,72429
2015-11-23T00:07:23.598Z,72434
2015-11-23T00:07:35.942Z,72433
2015-11-23T00:07:48.301Z,72432
2015-11-23T00:08:00.629Z,72432
2015-11-23T00:08:12.976Z,72431
2015-11-23T00:08:25.320Z,72430
2015-11-23T00:08:37.679Z,72428
2015-11-23T00:08:49.335Z,72422
2015-11-23T00:09:01.710Z,72430
2015-11-23T00:09:14.087Z,72431
2015-11-23T00:09:26.447Z,72428
2015-11-23T00:09:38.791Z,72428
2015-11-23T00:09:51.134Z,72419
2015-11-23T00:10:03.481Z,72418
2015-11-23T00:10:15.825Z,72428
2015-11-23T00:10:28.169Z,72422
2015-11-23T00:10:40.512Z,72422
2015-11-23T00:10:52.872Z,72419
2015-11-23T00:11:05.218Z,72432
2015-11-23T00:11:17.609Z,72434
2015-11-23T00:11:29.968Z,72435
2015-11-23T00:11:41.593Z,72426
2015-11-23T00:11:53.937Z,72428
2015-11-23T00:12:06.284Z,72431
2015-11-23T00:12:18.628Z,72435
2015-11-23T00:12:30.971Z,72435
2015-11-23T00:12:43.315Z,72436
2015-11-23T00:12:55.659Z,72439
2015-11-23T00:13:08.006Z,72439
2015-11-23T00:13:20.365Z,72433
2015-11-23T00:13:32.724Z,72434
2015-11-23T00:13:45.068Z,72438
2015-11-23T00:13:57.256Z,72434
2015-11-23T00:14:09.601Z,72431
2015-11-23T00:14:21.945Z,72428
2015-11-23T00:14:34.305Z,72431
2015-11-23T00:14:46.664Z,72434
2015-11-23T00:14:58.898Z,72430
2015-11-23T00:15:11.261Z,72428
2015-11-23T00:15:23.651Z,72431
2015-11-23T00:15:36.011Z,72430
2015-11-23T00:15:48.339Z,72435
2015-11-23T00:15:59.979Z,72438
2015-11-23T00:16:12.325Z,72435
2015-11-23T00:16:24.653Z,72432
2015-11-23T00:16:37.013Z,72425
2015-11-23T00:16:49.341Z,72426
2015-11-23T00:17:01.700Z,72427
2015-11-23T00:17:14.064Z,72419
2015-11-23T00:17:26.439Z,72428
2015-11-23T00:17:38.814Z,72423
2015-11-23T00:17:51.189Z,72422
2015-11-23T00:18:03.532Z,72425
2015-11-23T00:18:15.878Z,72430
2015-11-23T00:18:28.237Z,72428
2015-11-23T00:18:40.581Z,72433
2015-11-23T00:18:52.909Z,72431
2015-11-23T00:19:05.253Z,72435
2015-11-23T00:19:17.600Z,72426
2015-11-23T00:19:29.959Z,72424
2015-11-23T00:19:42.334Z,72426
2015-11-23T00:19:54.694Z,72432
2015-11-23T00:20:06.912Z,72429
2015-11-23T00:20:19.259Z,72429
2015-11-23T00:20:31.603Z,72431
2015-11-23T00:20:43.947Z,72428
2015-11-23T00:20:56.306Z,72427
2015-11-23T00:21:08.650Z,72431
2015-11-23T00:21:20.980Z,72432
2015-11-23T00:21:33.339Z,72426
2015-11-23T00:21:45.699Z,72426
2015-11-23T00:21:58.074Z,72426
2015-11-23T00:22:10.433Z,72422
2015-11-23T00:22:22.781Z,72411
2015-11-23T00:22:35.124Z,72421
2015-11-23T00:22:47.468Z,72426
2015-11-23T00:22:59.812Z,72424
2015-11-23T00:23:12.171Z,72422
2015-11-23T00:23:24.533Z,72425
2015-11-23T00:23:36.908Z,72427
2015-11-23T00:23:49.283Z,72424
2015-11-23T00:24:00.908Z,72424
2015-11-23T00:24:13.251Z,72423
2015-11-23T00:24:24.894Z,72424
2015-11-23T00:24:37.238Z,72424
2015-11-23T00:24:49.582Z,72423
2015-11-23T00:25:01.925Z,72429
2015-11-23T00:25:14.269Z,72430
2015-11-23T00:25:26.914Z,72435
2015-11-23T00:25:39.273Z,72440
2015-11-23T00:25:51.648Z,72436
2015-11-23T00:26:04.023Z,72431
2015-11-23T00:26:16.367Z,72426
2015-11-23T00:26:28.744Z,72423
2015-11-23T00:26:41.072Z,72424
2015-11-23T00:26:53.259Z,72423
2015-11-23T00:27:05.619Z,72432
2015-11-23T00:27:17.978Z,72427
2015-11-23T00:27:30.325Z,72425
2015-11-23T00:27:42.684Z,72436
2015-11-23T00:27:55.044Z,72437
2015-11-23T00:28:07.419Z,72442
2015-11-23T00:28:19.778Z,72441
2015-11-23T00:28:32.125Z,72437
2015-11-23T00:28:44.469Z,72436
2015-11-23T00:28:56.812Z,72432
2015-11-23T00:29:09.156Z,72430
2015-11-23T00:29:21.500Z,72432
2015-11-23T00:29:33.846Z,72426
2015-11-23T00:29:46.205Z,72438
2015-11-23T00:29:58.549Z,72442
2015-11-23T00:30:10.939Z,72438
2015-11-23T00:30:23.317Z,72441
2015-11-23T00:30:35.692Z,72431
2015-11-23T00:30:48.052Z,72423
2015-11-23T00:31:00.380Z,72423
2015-11-23T00:31:12.724Z,72415
2015-11-23T00:31:25.070Z,72424
2015-11-23T00:31:37.414Z,72427
2015-11-23T00:31:49.758Z,72433
2015-11-23T00:32:02.117Z,72437
2015-11-23T00:32:14.461Z,72432
2015-11-23T00:32:26.838Z,72435
2015-11-23T00:32:39.197Z,72440
2015-11-23T00:32:51.572Z,72444
2015-11-23T00:33:03.932Z,72441
2015-11-23T00:33:16.291Z,72432
2015-11-23T00:33:28.622Z,72430
2015-11-23T00:33:40.966Z,72426
2015-11-23T00:33:53.560Z,72435
2015-11-23T00:34:05.903Z,72435
2015-11-23T00:34:18.263Z,72435
2015-11-23T00:34:30.610Z,72433
2015-11-23T00:34:42.969Z,72431
2015-11-23T00:34:55.328Z,72435
2015-11-23T00:35:07.688Z,72436
2015-11-23T00:35:20.063Z,72440
2015-11-23T00:35:31.705Z,72445
2015-11-23T00:35:44.049Z,72449
2015-11-23T00:35:56.377Z,72447
2015-11-23T00:36:08.721Z,72441
2015-11-23T00:36:21.065Z,72442
2015-11-23T00:36:33.412Z,72433
2015-11-23T00:36:45.772Z,72428
2015-11-23T00:36:58.116Z,72426
2015-11-23T00:37:10.475Z,72417
2015-11-23T00:37:22.850Z,72418
2015-11-23T00:37:35.227Z,72434
2015-11-23T00:37:47.571Z,72443
2015-11-23T00:37:59.914Z,72439
2015-11-23T00:38:12.274Z,72442
2015-11-23T00:38:24.618Z,72446
2015-11-23T00:38:36.964Z,72442
2015-11-23T00:38:49.308Z,72434
2015-11-23T00:39:00.949Z,72435
2015-11-23T00:39:13.308Z,72426
2015-11-23T00:39:25.667Z,72430
2015-11-23T00:39:38.045Z,72437
2015-11-23T00:39:50.389Z,72443
2015-11-23T00:40:02.733Z,72443
2015-11-23T00:40:15.061Z,72436
2015-11-23T00:40:27.405Z,72443
2015-11-23T00:40:39.751Z,72450
2015-11-23T00:40:52.094Z,72448
2015-11-23T00:41:04.438Z,72440
2015-11-23T00:41:16.782Z,72442
2015-11-23T00:41:29.141Z,72432
2015-11-23T00:41:41.503Z,72439
2015-11-23T00:41:53.909Z,72421
2015-11-23T00:42:06.268Z,72428
2015-11-23T00:42:18.596Z,72435
2015-11-23T00:42:30.940Z,72442
2015-11-23T00:42:43.288Z,72449
2015-11-23T00:42:55.632Z,72454
2015-11-23T00:43:07.975Z,72453
2015-11-23T00:43:20.319Z,72451
2015-11-23T00:43:32.678Z,72447
2015-11-23T00:43:45.024Z,72453
2015-11-23T00:43:57.415Z,72449
2015-11-23T00:44:09.759Z,72440
2015-11-23T00:44:22.118Z,72440
2015-11-23T00:44:34.465Z,72441
2015-11-23T00:44:46.793Z,72442
2015-11-23T00:44:59.152Z,72440
2015-11-23T00:45:11.496Z,72446
2015-11-23T00:45:23.840Z,72441
2015-11-23T00:45:36.218Z,72448
2015-11-23T00:45:48.577Z,72451
2015-11-23T00:46:00.936Z,72452
2015-11-23T00:46:13.311Z,72452
2015-11-23T00:46:25.702Z,72444
2015-11-23T00:46:38.064Z,72446
2015-11-23T00:46:50.393Z,72444
2015-11-23T00:47:02.736Z,72445
2015-11-23T00:47:15.096Z,72442
2015-11-23T00:47:27.439Z,72441
2015-11-23T00:47:39.801Z,72437
2015-11-23T00:47:52.129Z,72436
2015-11-23T00:48:04.488Z,72429
2015-11-23T00:48:16.848Z,72430
2015-11-23T00:48:29.207Z,72424
2015-11-23T00:48:41.585Z,72431
2015-11-23T00:48:53.960Z,72443
2015-11-23T00:49:06.335Z,72446
2015-11-23T00:49:18.694Z,72449
2015-11-23T00:49:31.023Z,72449
2015-11-23T00:49:43.368Z,72435
2015-11-23T00:49:55.712Z,72426
2015-11-23T00:50:08.056Z,72424
2015-11-23T00:50:20.415Z,72432
2015-11-23T00:50:32.790Z,72444
2015-11-23T00:50:45.012Z,72441
2015-11-23T00:50:57.371Z,72441
2015-11-23T00:51:09.715Z,72440
2015-11-23T00:51:22.043Z,72440
2015-11-23T00:51:34.403Z,72441
2015-11-23T00:51:46.749Z,72444
2015-11-23T00:51:59.093Z,72441
2015-11-23T00:52:11.421Z,72441
2015-11-23T00:52:23.765Z,72434
2015-11-23T00:52:36.156Z,72433
2015-11-23T00:52:48.518Z,72430
2015-11-23T00:53:00.893Z,72424
2015-11-23T00:53:13.268Z,72432
2015-11-23T00:53:25.612Z,72434
2015-11-23T00:53:37.940Z,72436
2015-11-23T00:53:50.301Z,72442
2015-11-23T00:54:02.645Z,72438
2015-11-23T00:54:14.989Z,72443
2015-11-23T00:54:27.348Z,72444
2015-11-23T00:54:39.707Z,72436
2015-11-23T00:54:52.054Z,72443
2015-11-23T00:55:04.429Z,72436
2015-11-23T00:55:16.804Z,72430
2015-11-23T00:55:29.148Z,72429
2015-11-23T00:55:41.492Z,72434
2015-11-23T00:55:53.838Z,72440
2015-11-23T00:56:06.167Z,72445
2015-11-23T00:56:18.526Z,72439
2015-11-23T00:56:30.885Z,72443
2015-11-23T00:56:43.245Z,72436
2015-11-23T00:56:55.622Z,72430
2015-11-23T00:57:07.965Z,72428
2015-11-23T00:57:20.309Z,72428
2015-11-23T00:57:32.637Z,72430
2015-11-23T00:57:44.981Z,72431
2015-11-23T00:57:57.329Z,72430
2015-11-23T00:58:09.673Z,72424
2015-11-23T00:58:22.032Z,72430
2015-11-23T00:58:34.391Z,72434
2015-11-23T00:58:46.753Z,72440
2015-11-23T00:58:59.112Z,72447
2015-11-23T00:59:11.487Z,72447
2015-11-23T00:59:23.862Z,72448
2015-11-23T00:59:36.206Z,72446
2015-11-23T00:59:48.537Z,72443
2015-11-23T01:00:00.881Z,72442
2015-11-23T01:00:13.224Z,72444
2015-11-23T01:00:25.584Z,72447
2015-11-23T01:00:37.943Z,72444
2015-11-23T01:00:50.306Z,72432
2015-11-23T01:01:02.649Z,72428
2015-11-23T01:01:14.993Z,72432
2015-11-23T01:01:27.321Z,72438
2015-11-23T01:01:39.665Z,72443
2015-11-23T01:01:51.292Z,72438
2015-11-23T01:02:03.651Z,72435
2015-11-23T01:02:16.011Z,72435
2015-11-23T01:02:28.386Z,72438
2015-11-23T01:02:40.792Z,72443
2015-11-23T01:02:53.170Z,72446
2015-11-23T01:03:05.514Z,72438
2015-11-23T01:03:17.857Z,72444
2015-11-23T01:03:30.201Z,72439
2015-11-23T01:03:42.545Z,72440
2015-11-23T01:03:54.892Z,72439
2015-11-23T01:04:07.220Z,72443
2015-11-23T01:04:19.579Z,72442
2015-11-23T01:04:31.939Z,72443
2015-11-23T01:04:44.126Z,72428
2015-11-23T01:04:56.503Z,72426
2015-11-23T01:05:08.862Z,72434
2015-11-23T01:05:21.206Z,72432
2015-11-23T01:05:33.566Z,72428
2015-11-23T01:05:45.909Z,72434
2015-11-23T01:05:58.257Z,72441
2015-11-23T01:06:10.601Z,72450
2015-11-23T01:06:22.945Z,72449
2015-11-23T01:06:35.288Z,72441
2015-11-23T01:06:47.460Z,72449
2015-11-23T01:06:59.837Z,72447
2015-11-23T01:07:12.181Z,72450
2015-11-23T01:07:24.509Z,72444
2015-11-23T01:07:36.853Z,72442
2015-11-23T01:07:49.181Z,72447
2015-11-23T01:08:01.543Z,72448
2015-11-23T01:08:13.168Z,72448
2015-11-23T01:08:25.512Z,72449
2015-11-23T01:08:37.871Z,72443
2015-11-23T01:08:50.215Z,72440
2015-11-23T01:09:01.889Z,72440
2015-11-23T01:09:14.248Z,72434
2015-11-23T01:09:26.608Z,72442
2015-11-23T01:09:38.952Z,72443
2015-11-23T01:09:50.577Z,72440
2015-11-23T01:10:02.924Z,72438
2015-11-23T01:10:15.268Z,72446
2015-11-23T01:10:27.612Z,72448
2015-11-23T01:10:39.956Z,72449
2015-11-23T01:10:52.299Z,72450
2015-11-23T01:11:04.661Z,72448
2015-11-23T01:11:16.879Z,72446
2015-11-23T01:11:29.254Z,72449
2015-11-23T01:11:41.598Z,72451
2015-11-23T01:11:53.942Z,72454
2015-11-23T01:12:06.288Z,72451
2015-11-23T01:12:18.631Z,72455
2015-11-23T01:12:30.975Z,72455
2015-11-23T01:12:43.163Z,72457
2015-11-23T01:12:55.506Z,72464
2015-11-23T01:13:07.853Z,72462
2015-11-23T01:13:20.228Z,72452
2015-11-23T01:13:32.603Z,72435
2015-11-23T01:13:44.963Z,72452
2015-11-23T01:13:57.338Z,72451
2015-11-23T01:14:09.684Z,72455
2015-11-23T01:14:22.028Z,72446
2015-11-23T01:14:34.372Z,72448
2015-11-23T01:14:46.716Z,72448
2015-11-23T01:14:58.341Z,72448
2015-11-23T01:15:10.687Z,72448
2015-11-23T01:15:23.031Z,72453
2015-11-23T01:15:35.390Z,72453
2015-11-23T01:15:47.750Z,72448
2015-11-23T01:16:00.125Z,72444
2015-11-23T01:16:12.503Z,72443
2015-11-23T01:16:24.847Z,72446
2015-11-23T01:16:37.190Z,72444
2015-11-23T01:16:49.534Z,72452
2015-11-23T01:17:01.893Z,72449
2015-11-23T01:17:14.240Z,72452
2015-11-23T01:17:26.584Z,72452
2015-11-23T01:17:38.928Z,72454
2015-11-23T01:17:51.287Z,72453
2015-11-23T01:18:03.662Z,72449
2015-11-23T01:18:16.008Z,72446
2015-11-23T01:18:28.352Z,72453
2015-11-23T01:18:40.695Z,72450
2015-11-23T01:18:53.039Z,72451
2015-11-23T01:19:05.383Z,72446
2015-11-23T01:19:17.744Z,72445
2015-11-23T01:19:30.119Z,72443
2015-11-23T01:19:42.479Z,72443
2015-11-23T01:19:54.119Z,72446
2015-11-23T01:20:06.325Z,72447
2015-11-23T01:20:18.653Z,72446
2015-11-23T01:20:31.013Z,72452
2015-11-23T01:20:43.357Z,72454
2015-11-23T01:20:55.685Z,72449
2015-11-23T01:21:08.047Z,72452
2015-11-23T01:21:20.391Z,72453
2015-11-23T01:21:32.750Z,72450
2015-11-23T01:21:45.125Z,72452
2015-11-23T01:21:57.469Z,72455
2015-11-23T01:22:09.816Z,72454
2015-11-23T01:22:22.159Z,72446
2015-11-23T01:22:55.784Z,72454
2015-11-23T01:23:07.411Z,72455
2015-11-23T01:23:19.771Z,72455
2015-11-23T01:23:32.130Z,72449
2015-11-23T01:23:44.490Z,72455
2015-11-23T01:23:56.865Z,72451
2015-11-23T01:24:09.211Z,72448
2015-11-23T01:24:21.555Z,72454
2015-11-23T01:24:33.899Z,72451
2015-11-23T01:24:46.243Z,72452
2015-11-23T01:24:58.586Z,72460
2015-11-23T01:25:10.933Z,72454
2015-11-23T01:25:23.261Z,72453
2015-11-23T01:25:35.621Z,72461
2015-11-23T01:25:47.980Z,72456
2015-11-23T01:26:00.339Z,72458
2015-11-23T01:26:12.717Z,72456
2015-11-23T01:26:24.405Z,72457
2015-11-23T01:26:36.764Z,72460
2015-11-23T01:26:49.108Z,72458
2015-11-23T01:27:01.436Z,72461
2015-11-23T01:27:13.783Z,72459
2015-11-23T01:27:26.127Z,72459
2015-11-23T01:27:38.455Z,72461
2015-11-23T01:27:50.798Z,72461
2015-11-23T01:28:03.158Z,72463
2015-11-23T01:28:15.519Z,72460
2015-11-23T01:28:27.879Z,72462
2015-11-23T01:28:40.254Z,72467
2015-11-23T01:28:52.597Z,72458
2015-11-23T01:29:04.941Z,72457
2015-11-23T01:29:17.272Z,72456
2015-11-23T01:29:28.913Z,72456
2015-11-23T01:29:41.257Z,72458
2015-11-23T01:29:53.616Z,72459
2015-11-23T01:30:05.960Z,72458
2015-11-23T01:30:18.322Z,72454
2015-11-23T01:30:30.681Z,72457
2015-11-23T01:30:43.041Z,72461
2015-11-23T01:30:55.385Z,72462
2015-11-23T01:31:07.010Z,72458
2015-11-23T01:31:19.340Z,72459
2015-11-23T01:31:31.699Z,72455
2015-11-23T01:31:44.090Z,72456
2015-11-23T01:31:56.449Z,72455
2015-11-23T01:32:08.808Z,72460
2015-11-23T01:32:21.187Z,72457
2015-11-23T01:32:33.531Z,72459
2015-11-23T01:32:45.875Z,72452
2015-11-23T01:32:58.219Z,72456
2015-11-23T01:33:10.547Z,72457
2015-11-23T01:33:22.908Z,72464
2015-11-23T01:33:35.252Z,72458
2015-11-23T01:33:47.596Z,72460
2015-11-23T01:33:59.955Z,72456
2015-11-23T01:34:12.299Z,72457
2015-11-23T01:34:24.677Z,72450
2015-11-23T01:34:37.052Z,72457
2015-11-23T01:34:49.396Z,72454
2015-11-23T01:35:01.739Z,72450
2015-11-23T01:35:14.083Z,72450
2015-11-23T01:35:26.430Z,72453
2015-11-23T01:35:38.758Z,72458
2015-11-23T01:35:51.102Z,72455
2015-11-23T01:36:03.445Z,72459
2015-11-23T01:36:15.807Z,72456
2015-11-23T01:36:28.166Z,72451
2015-11-23T01:36:40.526Z,72456
2015-11-23T01:36:52.901Z,72459
2015-11-23T01:37:05.276Z,72466
2015-11-23T01:37:17.638Z,72461
2015-11-23T01:37:29.982Z,72463
2015-11-23T01:37:42.325Z,72458
2015-11-23T01:37:54.669Z,72455
2015-11-23T01:38:07.029Z,72455
2015-11-23T01:38:19.375Z,72459
2015-11-23T01:38:31.719Z,72465
2015-11-23T01:38:44.063Z,72469
2015-11-23T01:38:56.422Z,72466
2015-11-23T01:39:08.797Z,72468
2015-11-23T01:39:21.159Z,72464
2015-11-23T01:39:33.502Z,72468
2015-11-23T01:39:45.846Z,72463
2015-11-23T01:39:58.205Z,72466
2015-11-23T01:40:10.549Z,72472
2015-11-23T01:40:22.896Z,72469
2015-11-23T01:40:35.224Z,72465
2015-11-23T01:40:47.568Z,72463
2015-11-23T01:40:59.912Z,72464
2015-11-23T01:41:12.255Z,72466
2015-11-23T01:41:24.618Z,72463
2015-11-23T01:41:36.993Z,72462
2015-11-23T01:41:49.321Z,72467
2015-11-23T01:42:01.665Z,72467
2015-11-23T01:42:13.305Z,72463
2015-11-23T01:42:25.635Z,72462
2015-11-23T01:42:37.979Z,72458
2015-11-23T01:42:50.323Z,72461
2015-11-23T01:43:02.682Z,72460
2015-11-23T01:43:15.042Z,72459
2015-11-23T01:43:27.404Z,72461
2015-11-23T01:43:39.779Z,72468
2015-11-23T01:43:52.154Z,72461
2015-11-23T01:44:03.107Z,72464
2015-11-23T01:44:15.482Z,72459
2015-11-23T01:44:27.828Z,72467
2015-11-23T01:44:40.172Z,72464
2015-11-23T01:44:52.515Z,72463
2015-11-23T01:45:04.859Z,72463
2015-11-23T01:45:17.203Z,72470
2015-11-23T01:45:29.566Z,72468
2015-11-23T01:45:41.910Z,72467
2015-11-23T01:45:54.269Z,72466
2015-11-23T01:46:06.644Z,72463
2015-11-23T01:46:19.004Z,72461
2015-11-23T01:46:31.349Z,72457
2015-11-23T01:46:43.709Z,72458
2015-11-23T01:46:56.053Z,72458
2015-11-23T01:47:08.381Z,72466
2015-11-23T01:47:20.021Z,72464
2015-11-23T01:47:32.384Z,72465
2015-11-23T01:47:44.759Z,72463
2015-11-23T01:47:57.118Z,72460
2015-11-23T01:48:09.337Z,72466
2015-11-23T01:48:21.696Z,72461
2015-11-23T01:48:34.043Z,72463
2015-11-23T01:48:46.387Z,72461
2015-11-23T01:48:58.730Z,72457
2015-11-23T01:49:11.074Z,72462
2015-11-23T01:49:23.402Z,72459
2015-11-23T01:49:35.765Z,72462
2015-11-23T01:49:48.108Z,72459
2015-11-23T01:50:00.452Z,72460
2015-11-23T01:50:12.827Z,72461
2015-11-23T01:50:25.187Z,72461
2015-11-23T01:50:37.548Z,72468
2015-11-23T01:50:49.876Z,72467
2015-11-23T01:51:02.220Z,72471
2015-11-23T01:51:14.564Z,72470
2015-11-23T01:51:26.907Z,72467
2015-11-23T01:51:39.254Z,72468
2015-11-23T01:51:51.598Z,72467
2015-11-23T01:52:03.238Z,72475
2015-11-23T01:52:15.598Z,72470
2015-11-23T01:52:27.270Z,72475
2015-11-23T01:52:39.648Z,72478
2015-11-23T01:52:52.007Z,72477
2015-11-23T01:53:04.351Z,72477
2015-11-23T01:53:16.710Z,72476
2015-11-23T01:53:29.038Z,72477
2015-11-23T01:53:41.385Z,72477
2015-11-23T01:53:53.729Z,72480
2015-11-23T01:54:06.073Z,72481
2015-11-23T01:54:18.432Z,72478
2015-11-23T01:54:30.791Z,72476
2015-11-23T01:54:42.996Z,72480
2015-11-23T01:54:55.371Z,72476
2015-11-23T01:55:07.746Z,72474
2015-11-23T01:55:20.106Z,72472
2015-11-23T01:55:32.450Z,72476
2015-11-23T01:55:44.780Z,72473
2015-11-23T01:55:57.123Z,72474
2015-11-23T01:56:09.483Z,72467
2015-11-23T01:56:21.827Z,72475
2015-11-23T01:56:34.173Z,72472
2015-11-23T01:56:46.533Z,72477
2015-11-23T01:56:58.892Z,72476
2015-11-23T01:57:11.267Z,72482
2015-11-23T01:57:23.470Z,72478
2015-11-23T01:57:35.818Z,72481
2015-11-23T01:57:47.443Z,72483
2015-11-23T01:57:59.787Z,72486
2015-11-23T01:58:12.130Z,72480
2015-11-23T01:58:24.490Z,72478
2015-11-23T01:58:36.851Z,72475
2015-11-23T01:58:49.242Z,72480
2015-11-23T01:59:01.617Z,72483
2015-11-23T01:59:13.961Z,72485
2015-11-23T01:59:26.304Z,72479
2015-11-23T01:59:38.666Z,72484
2015-11-23T01:59:51.009Z,72484
2015-11-23T02:00:03.353Z,72481
2015-11-23T02:00:15.697Z,72483
2015-11-23T02:00:28.041Z,72484
2015-11-23T02:00:40.403Z,72484
2015-11-23T02:00:52.747Z,72488
2015-11-23T02:01:05.137Z,72484
2015-11-23T02:01:17.497Z,72484
2015-11-23T02:01:29.825Z,72478
2015-11-23T02:01:42.172Z,72484
2015-11-23T02:01:54.515Z,72483
2015-11-23T02:02:06.859Z,72481
2015-11-23T02:02:19.203Z,72479
2015-11-23T02:02:31.547Z,72479
2015-11-23T02:02:43.908Z,72481
2015-11-23T02:02:56.267Z,72480
2015-11-23T02:03:08.642Z,72482
2015-11-23T02:03:21.017Z,72479
2015-11-23T02:03:33.392Z,72482
2015-11-23T02:03:45.725Z,72478
2015-11-23T02:03:57.912Z,72478
2015-11-23T02:04:10.256Z,72482
2015-11-23T02:04:22.600Z,72484
2015-11-23T02:04:34.959Z,72490
2015-11-23T02:04:47.306Z,72488
2015-11-23T02:04:59.665Z,72484
2015-11-23T02:05:11.306Z,72479
2015-11-23T02:05:22.962Z,72478
2015-11-23T02:05:35.337Z,72480
2015-11-23T02:05:47.714Z,72486
2015-11-23T02:06:00.089Z,72487
2015-11-23T02:06:12.433Z,72485
2015-11-23T02:06:24.761Z,72486
2015-11-23T02:06:37.120Z,72475
2015-11-23T02:06:49.467Z,72479
2015-11-23T02:07:01.811Z,72477
2015-11-23T02:07:14.154Z,72477
2015-11-23T02:07:26.529Z,72480
2015-11-23T02:07:38.735Z,72479
2015-11-23T02:07:50.391Z,72478
2015-11-23T02:08:02.766Z,72485
2015-11-23T02:08:15.156Z,72478
2015-11-23T02:08:27.531Z,72478
2015-11-23T02:08:39.722Z,72476
2015-11-23T02:08:52.066Z,72478
2015-11-23T02:09:04.425Z,72471
2015-11-23T02:09:16.816Z,72455
2015-11-23T02:09:29.159Z,72450
2015-11-23T02:09:41.350Z,72458
2015-11-23T02:09:53.694Z,72457
2015-11-23T02:10:06.069Z,72469
2015-11-23T02:10:18.412Z,72457
2015-11-23T02:10:30.787Z,72468
2015-11-23T02:10:43.180Z,72463
2015-11-23T02:10:55.524Z,72466
2015-11-23T02:11:07.868Z,72467
2015-11-23T02:11:20.211Z,72473
2015-11-23T02:11:32.555Z,72471
2015-11-23T02:11:44.200Z,72473
2015-11-23T02:11:56.543Z,72477
2015-11-23T02:12:08.872Z,72476
2015-11-23T02:12:21.231Z,72483
2015-11-23T02:12:33.590Z,72487
2015-11-23T02:12:45.952Z,72479
2015-11-23T02:12:58.327Z,72481
2015-11-23T02:13:10.655Z,72476
2015-11-23T02:13:22.999Z,72478
2015-11-23T02:13:35.342Z,72477
2015-11-23T02:13:47.688Z,72474
2015-11-23T02:14:00.047Z,72478
2015-11-23T02:14:12.407Z,72474
2015-11-23T02:14:24.766Z,72477
2015-11-23T02:14:37.126Z,72483
2015-11-23T02:14:49.489Z,72482
2015-11-23T02:15:01.864Z,72480
2015-11-23T02:15:14.223Z,72483
2015-11-23T02:15:26.567Z,72480
2015-11-23T02:15:38.911Z,72472
2015-11-23T02:15:51.257Z,72480
2015-11-23T02:16:03.600Z,72478
2015-11-23T02:16:15.928Z,72478
2015-11-23T02:16:28.272Z,72471
2015-11-23T02:16:40.616Z,72478
2015-11-23T02:16:52.978Z,72479
2015-11-23T02:17:05.338Z,72481
2015-11-23T02:17:17.697Z,72482
2015-11-23T02:17:30.056Z,72483
2015-11-23T02:17:42.416Z,72482
2015-11-23T02:17:54.778Z,72478
2015-11-23T02:18:07.106Z,72476
2015-11-23T02:18:19.450Z,72474
2015-11-23T02:18:31.794Z,72471
2015-11-23T02:18:44.138Z,72479
2015-11-23T02:18:56.483Z,72486
2015-11-23T02:19:08.843Z,72485
2015-11-23T02:19:21.202Z,72485
2015-11-23T02:19:33.436Z,72481
2015-11-23T02:19:45.796Z,72482
2015-11-23T02:19:58.158Z,72483
2015-11-23T02:20:10.486Z,72482
2015-11-23T02:20:22.830Z,72484
2015-11-23T02:20:35.174Z,72476
2015-11-23T02:20:47.518Z,72477
2015-11-23T02:20:59.880Z,72476
2015-11-23T02:21:12.208Z,72481
2015-11-23T02:21:24.567Z,72481
2015-11-23T02:21:36.927Z,72482
2015-11-23T02:21:49.352Z,72480
2015-11-23T02:22:01.727Z,72476
2015-11-23T02:22:14.102Z,72473
2015-11-23T02:22:26.508Z,72483
2015-11-23T02:22:38.836Z,72483
2015-11-23T02:22:51.182Z,72484
2015-11-23T02:23:03.526Z,72486
2015-11-23T02:23:15.854Z,72477
2015-11-23T02:23:28.213Z,72484
2015-11-23T02:23:40.557Z,72485
2015-11-23T02:23:52.747Z,72488
2015-11-23T02:24:05.107Z,72493
2015-11-23T02:24:17.466Z,72488
2015-11-23T02:24:29.841Z,72489
2015-11-23T02:24:42.185Z,72483
2015-11-23T02:24:54.532Z,72488
2015-11-23T02:25:06.891Z,72485
2015-11-23T02:25:19.235Z,72493
2015-11-23T02:25:31.578Z,72491
2015-11-23T02:25:43.922Z,72487
2015-11-23T02:25:56.269Z,72486
2015-11-23T02:26:08.613Z,72490
2015-11-23T02:26:21.003Z,72488
2015-11-23T02:26:33.394Z,72481
2015-11-23T02:26:45.769Z,72480
2015-11-23T02:26:58.130Z,72480
2015-11-23T02:27:10.474Z,72480
2015-11-23T02:27:22.802Z,72477
2015-11-23T02:27:35.162Z,72480
2015-11-23T02:27:47.349Z,72479
2015-11-23T02:27:59.696Z,72483
2015-11-23T02:28:12.040Z,72486
2015-11-23T02:28:24.399Z,72486
2015-11-23T02:28:36.758Z,72487
2015-11-23T02:28:48.961Z,72492
2015-11-23T02:29:01.339Z,72497
2015-11-23T02:29:13.699Z,72492
2015-11-23T02:29:26.043Z,72485
2015-11-23T02:29:38.386Z,72483
2015-11-23T02:29:50.746Z,72481
2015-11-23T02:30:03.092Z,72485
2015-11-23T02:30:15.436Z,72485
2015-11-23T02:30:27.796Z,72480
2015-11-23T02:30:40.171Z,72484
2015-11-23T02:30:51.842Z,72486
2015-11-23T02:31:04.219Z,72488
2015-11-23T02:31:16.548Z,72490
2015-11-23T02:31:28.876Z,72491
2015-11-23T02:31:41.219Z,72489
2015-11-23T02:31:53.548Z,72490
2015-11-23T02:32:05.191Z,72484
2015-11-23T02:32:17.519Z,72490
2015-11-23T02:32:29.863Z,72487
2015-11-23T02:32:42.207Z,72487
2015-11-23T02:32:54.582Z,72475
2015-11-23T02:33:06.241Z,72472
2015-11-23T02:33:18.585Z,72466
2015-11-23T02:33:30.913Z,72474
2015-11-23T02:33:43.507Z,72472
2015-11-23T02:33:55.850Z,72466
2015-11-23T02:34:07.477Z,72465
2015-11-23T02:34:19.821Z,72462
2015-11-23T02:34:32.149Z,72460
2015-11-23T02:34:44.509Z,72466
2015-11-23T02:34:56.871Z,72470
2015-11-23T02:35:09.230Z,72464
2015-11-23T02:35:21.590Z,72470
2015-11-23T02:35:33.949Z,72472
2015-11-23T02:35:46.277Z,72468
2015-11-23T02:35:58.623Z,72472
2015-11-23T02:36:10.951Z,72471
2015-11-23T02:36:23.295Z,72474
2015-11-23T02:36:35.623Z,72474
2015-11-23T02:36:47.951Z,72473
2015-11-23T02:37:00.314Z,72464
2015-11-23T02:37:12.657Z,72468
2015-11-23T02:37:25.017Z,72465
2015-11-23T02:37:37.376Z,72462
2015-11-23T02:37:49.735Z,72468
2015-11-23T02:38:02.082Z,72471
2015-11-23T02:38:14.426Z,72468
2015-11-23T02:38:26.754Z,72477
2015-11-23T02:38:39.098Z,72472
2015-11-23T02:38:51.442Z,72459